Time;durP1;ratioP1;P1;durP2;ratioP2;P2;SDS_P1;SDS_P2;PMS_P1;PMS_P2;Temp;Humidity;BMP_temperature;BMP_pressure;BME280_temperature;BME280_humidity;BME280_pressure;Samples;Min_cycle;Max_cycle;Signal;HPM_P1;HPM_P2
2024/02/15 00:02:09;;;;;;;22.20;21.50;;;21.60;63.80;;;;;;5045962;28;20515;-62
2024/02/15 00:04:37;;;;;;;22.10;21.40;;;21.50;63.70;;;;;;5044066;28;20959;-62
2024/02/15 00:07:05;;;;;;;23.10;22.30;;;21.50;63.70;;;;;;5042368;28;20477;-62
2024/02/15 00:09:32;;;;;;;23.97;23.10;;;21.50;63.80;;;;;;5043711;28;20449;-62
2024/02/15 00:12:00;;;;;;;28.23;27.23;;;21.50;63.80;;;;;;5045047;28;20484;-62
2024/02/15 00:14:28;;;;;;;24.00;23.20;;;21.50;63.90;;;;;;5044942;28;21109;-62
2024/02/15 00:16:55;;;;;;;22.63;21.83;;;21.50;63.90;;;;;;5045626;28;20817;-62
2024/02/15 00:19:22;;;;;;;21.80;21.10;;;21.50;63.90;;;;;;5045511;28;20452;-62
2024/02/15 00:21:49;;;;;;;22.30;21.50;;;21.50;64.00;;;;;;5042117;28;20888;-62
2024/02/15 00:24:18;;;;;;;23.47;22.67;;;21.50;63.90;;;;;;5042358;28;20481;-62
2024/02/15 00:26:44;;;;;;;23.20;22.40;;;21.50;64.00;;;;;;5044986;28;20468;-62
2024/02/15 00:29:11;;;;;;;22.23;21.43;;;21.40;64.00;;;;;;5045358;28;20476;-62
2024/02/15 00:31:39;;;;;;;22.27;21.43;;;21.40;64.00;;;;;;5042922;28;20471;-61
2024/02/15 00:34:06;;;;;;;21.60;20.90;;;21.50;64.20;;;;;;5042052;28;20838;-62
2024/02/15 00:36:33;;;;;;;23.70;22.90;;;21.40;64.10;;;;;;5043094;28;20473;-62
2024/02/15 00:39:00;;;;;;;21.90;21.00;;;21.40;64.10;;;;;;5045375;28;20807;-62
2024/02/15 00:41:28;;;;;;;23.00;22.20;;;21.40;64.10;;;;;;5044637;28;20503;-63
2024/02/15 00:43:55;;;;;;;22.67;21.87;;;21.50;64.20;;;;;;5041763;28;20551;-62
2024/02/15 00:46:22;;;;;;;21.80;21.10;;;21.40;64.10;;;;;;5038156;28;20484;-62
2024/02/15 00:48:49;;;;;;;22.17;21.47;;;21.40;64.10;;;;;;5033646;28;20468;-62
2024/02/15 00:51:16;;;;;;;22.70;21.90;;;21.40;64.10;;;;;;5041678;28;20465;-62
2024/02/15 00:53:43;;;;;;;22.60;21.80;;;21.40;64.10;;;;;;5043430;28;20481;-62
2024/02/15 00:56:10;;;;;;;21.63;20.83;;;21.40;64.10;;;;;;5046862;28;20480;-62
2024/02/15 00:58:38;;;;;;;21.63;20.93;;;21.40;64.10;;;;;;5049016;28;20479;-61
2024/02/15 01:01:05;;;;;;;21.97;21.27;;;21.40;64.20;;;;;;5041443;28;20481;-62
2024/02/15 01:03:32;;;;;;;21.90;21.10;;;21.40;64.20;;;;;;5042298;28;20497;-62
2024/02/15 01:05:59;;;;;;;22.10;21.30;;;21.40;64.30;;;;;;5047667;28;20861;-62
2024/02/15 01:08:24;;;;;;;22.43;21.63;;;21.40;64.40;;;;;;5041438;28;21054;-62
2024/02/15 01:10:52;;;;;;;22.00;21.20;;;21.40;64.40;;;;;;5044943;28;20484;-62
2024/02/15 01:13:19;;;;;;;21.77;20.97;;;21.40;64.40;;;;;;5044329;28;20224;-62
2024/02/15 01:15:47;;;;;;;22.60;21.80;;;21.40;64.50;;;;;;5043791;28;20898;-62
2024/02/15 01:18:14;;;;;;;23.27;22.47;;;21.40;64.50;;;;;;5044711;28;20491;-62
2024/02/15 01:20:41;;;;;;;22.57;21.77;;;21.40;64.50;;;;;;5042104;28;20511;-62
2024/02/15 01:23:08;;;;;;;22.13;21.43;;;21.30;64.40;;;;;;5040073;28;20493;-62
2024/02/15 01:25:35;;;;;;;22.77;21.97;;;21.40;64.50;;;;;;5049057;28;20441;-62
2024/02/15 01:28:02;;;;;;;22.30;21.50;;;21.40;64.50;;;;;;5041221;28;20476;-62
2024/02/15 01:30:30;;;;;;;21.97;21.23;;;21.40;64.50;;;;;;5041259;28;20437;-62
2024/02/15 01:32:58;;;;;;;22.20;21.40;;;21.40;64.60;;;;;;5044009;28;20543;-62
2024/02/15 01:35:26;;;;;;;21.90;21.10;;;21.40;64.60;;;;;;5043708;28;20469;-62
2024/02/15 01:37:53;;;;;;;22.70;21.90;;;21.40;64.70;;;;;;5032900;28;20477;-61
2024/02/15 01:40:20;;;;;;;22.00;21.30;;;21.30;64.70;;;;;;5040609;28;20941;-62
2024/02/15 01:42:49;;;;;;;22.40;21.60;;;21.30;64.70;;;;;;5043233;28;20495;-62
2024/02/15 01:45:16;;;;;;;22.10;21.40;;;21.40;64.90;;;;;;5044649;28;20448;-61
2024/02/15 01:47:43;;;;;;;22.23;21.43;;;21.30;64.70;;;;;;5043009;28;20476;-62
2024/02/15 01:50:14;;;;;;;22.43;21.63;;;21.30;64.70;;;;;;5043801;28;20480;-62
2024/02/15 01:52:43;;;;;;;22.83;22.03;;;21.30;64.80;;;;;;5041522;28;20463;-61
2024/02/15 01:55:11;;;;;;;23.17;22.37;;;21.30;64.90;;;;;;5040451;28;20445;-62
2024/02/15 01:57:38;;;;;;;22.27;21.57;;;21.30;64.90;;;;;;5048547;28;20916;-62
2024/02/15 02:00:08;;;;;;;22.73;22.00;;;21.30;64.90;;;;;;5040212;28;20437;-61
2024/02/15 02:02:38;;;;;;;22.10;21.37;;;21.30;64.90;;;;;;5041197;28;20481;-62
2024/02/15 02:05:06;;;;;;;23.27;22.47;;;21.30;64.90;;;;;;5043837;28;20471;-62
2024/02/15 02:07:35;;;;;;;29.80;28.80;;;21.30;65.00;;;;;;5042500;28;20475;-62
2024/02/15 02:10:02;;;;;;;29.13;28.13;;;21.30;65.00;;;;;;5040004;28;20448;-62
2024/02/15 02:12:29;;;;;;;22.00;21.30;;;21.30;65.00;;;;;;5041093;28;20452;-62
2024/02/15 02:14:56;;;;;;;23.40;22.60;;;21.30;65.00;;;;;;5043507;28;20475;-61
2024/02/15 02:17:23;;;;;;;22.40;21.70;;;21.30;65.00;;;;;;5043478;28;20494;-61
2024/02/15 02:19:50;;;;;;;22.03;21.23;;;21.30;65.10;;;;;;5040096;28;20465;-62
2024/02/15 02:22:18;;;;;;;23.00;22.23;;;21.30;65.10;;;;;;5040058;28;20937;-62
2024/02/15 02:24:58;;;;;;;22.03;21.33;;;21.30;65.30;;;;;;5042298;28;20437;-62
2024/02/15 02:27:27;;;;;;;21.67;20.97;;;21.30;65.30;;;;;;5043378;28;20455;-62
2024/02/15 02:29:55;;;;;;;22.33;21.63;;;21.30;65.30;;;;;;5035118;28;20445;-62
2024/02/15 02:32:22;;;;;;;22.00;21.30;;;21.30;65.30;;;;;;5051060;28;20460;-61
2024/02/15 02:34:49;;;;;;;21.77;20.97;;;21.20;65.20;;;;;;5042773;28;20463;-62
2024/02/15 02:37:16;;;;;;;23.90;23.00;;;21.30;65.30;;;;;;5043247;28;20468;-62
2024/02/15 02:39:44;;;;;;;23.07;22.27;;;21.20;65.20;;;;;;5041175;28;20476;-61
2024/02/15 02:42:12;;;;;;;21.90;21.10;;;21.30;65.20;;;;;;5039440;28;20584;-62
2024/02/15 02:44:39;;;;;;;21.70;21.00;;;21.30;65.30;;;;;;5041258;28;20441;-62
2024/02/15 02:47:06;;;;;;;21.63;20.93;;;21.20;65.20;;;;;;5043169;28;20468;-61
2024/02/15 02:49:33;;;;;;;21.70;21.00;;;21.30;65.20;;;;;;5042116;28;21089;-59
2024/02/15 02:52:00;;;;;;;22.80;22.00;;;21.20;65.10;;;;;;5046328;28;20489;-62
2024/02/15 02:54:28;;;;;;;22.67;21.87;;;21.30;65.30;;;;;;5039828;28;20525;-61
2024/02/15 02:56:55;;;;;;;21.70;21.00;;;21.20;65.20;;;;;;5031538;28;20480;-61
2024/02/15 02:59:23;;;;;;;22.70;21.90;;;21.20;65.20;;;;;;5039740;28;20476;-62
2024/02/15 03:01:50;;;;;;;22.50;21.70;;;21.20;65.20;;;;;;5042347;28;20828;-62
2024/02/15 03:04:17;;;;;;;23.10;22.20;;;21.20;65.20;;;;;;5043102;28;20868;-63
2024/02/15 03:06:44;;;;;;;23.20;22.40;;;21.20;65.20;;;;;;5042785;28;20467;-62
2024/02/15 03:09:14;;;;;;;22.20;21.50;;;21.30;65.40;;;;;;5039744;28;20487;-62
2024/02/15 03:11:41;;;;;;;21.83;21.13;;;21.20;65.30;;;;;;5040882;28;20468;-62
2024/02/15 03:14:08;;;;;;;22.50;21.70;;;21.20;65.20;;;;;;5042945;28;20872;-62
2024/02/15 03:16:36;;;;;;;22.37;21.67;;;21.20;65.20;;;;;;5042231;28;20464;-62
2024/02/15 03:19:04;;;;;;;22.77;21.97;;;21.20;65.20;;;;;;5039408;28;20503;-62
2024/02/15 03:21:31;;;;;;;22.63;21.73;;;21.20;65.20;;;;;;5039432;28;20488;-62
2024/02/15 03:23:58;;;;;;;22.10;21.37;;;21.20;65.20;;;;;;5042728;28;20447;-63
2024/02/15 03:26:38;;;;;;;24.80;23.90;;;21.20;65.30;;;;;;5042936;28;20472;-62
2024/02/15 03:29:05;;;;;;;24.00;23.20;;;21.20;65.30;;;;;;5032533;28;20491;-63
2024/02/15 03:31:31;;;;;;;24.10;23.30;;;21.20;65.20;;;;;;5039259;28;20476;-62
2024/02/15 03:34:00;;;;;;;24.80;24.00;;;21.20;65.30;;;;;;5042717;28;20445;-62
2024/02/15 03:36:29;;;;;;;28.23;27.33;;;21.20;65.30;;;;;;5044198;28;20452;-63
2024/02/15 03:38:56;;;;;;;22.40;21.60;;;21.20;65.30;;;;;;5035783;28;20511;-62
2024/02/15 03:41:23;;;;;;;24.07;23.00;;;21.20;65.30;;;;;;5039009;28;20520;-62
2024/02/15 03:43:49;;;;;;;22.50;21.70;;;21.20;65.30;;;;;;5041639;28;20479;-62
2024/02/15 03:46:16;;;;;;;22.23;21.53;;;21.20;65.30;;;;;;5042743;28;20472;-62
2024/02/15 03:48:45;;;;;;;22.53;21.83;;;21.20;65.40;;;;;;5044264;28;20876;-62
2024/02/15 03:51:18;;;;;;;23.33;22.53;;;21.20;65.50;;;;;;5042793;28;20445;-62
2024/02/15 03:53:45;;;;;;;23.07;22.27;;;21.20;65.50;;;;;;5044412;28;20871;-62
2024/02/15 03:56:12;;;;;;;22.60;21.80;;;21.20;65.50;;;;;;5048687;28;20487;-62
2024/02/15 03:58:39;;;;;;;23.03;22.23;;;21.20;65.50;;;;;;5043687;28;20469;-62
2024/02/15 04:01:09;;;;;;;22.97;22.17;;;21.20;65.50;;;;;;5046034;28;20943;-62
2024/02/15 04:03:36;;;;;;;23.87;23.07;;;21.20;65.50;;;;;;5045296;28;20982;-62
2024/02/15 04:06:04;;;;;;;23.60;22.80;;;21.20;65.40;;;;;;5042364;28;20469;-62
2024/02/15 04:08:33;;;;;;;24.90;24.00;;;21.20;65.50;;;;;;5042371;28;20503;-62
2024/02/15 04:11:00;;;;;;;23.50;22.70;;;21.20;65.50;;;;;;5034675;28;20528;-61
2024/02/15 04:13:27;;;;;;;23.47;22.67;;;21.20;65.50;;;;;;5049180;28;20551;-62
2024/02/15 04:15:53;;;;;;;23.13;22.33;;;21.20;65.60;;;;;;5042593;28;20852;-62
2024/02/15 04:18:20;;;;;;;23.83;23.03;;;21.20;65.60;;;;;;5042254;28;20473;-62
2024/02/15 04:20:48;;;;;;;23.60;22.77;;;21.20;65.60;;;;;;5044227;28;20980;-62
2024/02/15 04:23:15;;;;;;;24.50;23.60;;;21.20;65.60;;;;;;5045516;28;20502;-62
2024/02/15 04:25:50;;;;;;;23.57;22.67;;;21.20;65.60;;;;;;5043946;28;20882;-62
2024/02/15 04:28:17;;;;;;;23.60;22.70;;;21.20;65.60;;;;;;5042057;28;20444;-62
2024/02/15 04:30:46;;;;;;;24.90;24.03;;;21.20;65.60;;;;;;5043622;28;20472;-62
2024/02/15 04:33:15;;;;;;;23.60;22.80;;;21.20;65.60;;;;;;5045601;28;20498;-62
2024/02/15 04:35:42;;;;;;;24.20;23.40;;;21.20;65.60;;;;;;5043824;28;20535;-62
2024/02/15 04:38:09;;;;;;;22.97;22.17;;;21.20;65.60;;;;;;5041791;28;20476;-62
2024/02/15 04:40:38;;;;;;;22.93;22.13;;;21.20;65.60;;;;;;5042122;28;20444;-62
2024/02/15 04:43:06;;;;;;;24.10;23.10;;;21.20;65.70;;;;;;5045152;28;20538;-62
2024/02/15 04:45:33;;;;;;;23.63;22.63;;;21.20;65.70;;;;;;5044937;28;20444;-62
2024/02/15 04:48:01;;;;;;;23.17;22.37;;;21.20;65.70;;;;;;5041602;28;20469;-62
2024/02/15 04:50:29;;;;;;;23.73;22.90;;;21.20;65.80;;;;;;5041784;28;20520;-61
2024/02/15 04:52:56;;;;;;;23.10;22.20;;;21.20;65.80;;;;;;5044527;28;20483;-62
2024/02/15 04:55:23;;;;;;;22.80;22.00;;;21.20;66.60;;;;;;5044967;28;20440;-61
2024/02/15 04:57:54;;;;;;;22.10;21.30;;;21.20;65.80;;;;;;5042373;28;20472;-62
2024/02/15 05:00:25;;;;;;;23.73;22.77;;;21.20;65.80;;;;;;5041496;28;20499;-62
2024/02/15 05:02:52;;;;;;;25.17;24.27;;;21.20;65.90;;;;;;5043878;28;20559;-62
2024/02/15 05:05:20;;;;;;;26.67;25.67;;;21.20;65.90;;;;;;5044764;28;20448;-62
2024/02/15 05:07:48;;;;;;;26.00;25.10;;;21.20;66.20;;;;;;5042922;28;20476;-62
2024/02/15 05:10:16;;;;;;;26.03;25.13;;;21.20;66.20;;;;;;5041360;28;20867;-62
2024/02/15 05:12:43;;;;;;;26.90;26.00;;;21.20;66.40;;;;;;5042684;28;20461;-62
2024/02/15 05:15:11;;;;;;;25.23;24.33;;;21.20;66.40;;;;;;5044541;28;20447;-62
2024/02/15 05:17:41;;;;;;;26.73;25.73;;;21.20;66.50;;;;;;5043973;28;20472;-62
2024/02/15 05:20:11;;;;;;;26.77;25.67;;;21.20;66.50;;;;;;5041176;28;20441;-62
2024/02/15 05:22:39;;;;;;;25.43;24.53;;;21.20;66.50;;;;;;5041464;28;20512;-62
2024/02/15 05:25:08;;;;;;;26.87;25.90;;;21.30;66.60;;;;;;5044403;28;20440;-62
2024/02/15 05:27:34;;;;;;;25.63;24.63;;;21.30;66.60;;;;;;5044250;28;20468;-62
2024/02/15 05:30:01;;;;;;;27.20;25.80;;;21.30;66.60;;;;;;5041125;28;20445;-62
2024/02/15 05:32:29;;;;;;;31.13;28.83;;;21.30;66.80;;;;;;5040899;28;20519;-61
2024/02/15 05:34:57;;;;;;;28.17;26.00;;;21.30;67.00;;;;;;5043456;28;20447;-62
2024/02/15 05:37:24;;;;;;;28.07;26.77;;;21.30;68.40;;;;;;5047956;28;20468;-64
2024/02/15 05:39:55;;;;;;;27.97;26.67;;;21.30;71.20;;;;;;5041137;28;20440;-62
2024/02/15 05:42:22;;;;;;;28.37;26.70;;;21.40;72.30;;;;;;5035223;28;20496;-62
2024/02/15 05:44:50;;;;;;;28.17;26.97;;;21.40;72.50;;;;;;5042191;28;21017;-62
2024/02/15 05:47:17;;;;;;;29.00;27.40;;;21.40;72.60;;;;;;5043805;28;20440;-60
2024/02/15 05:49:44;;;;;;;29.47;27.57;;;21.40;72.40;;;;;;5042616;28;20476;-60
2024/02/15 05:52:12;;;;;;;27.80;26.50;;;21.40;72.20;;;;;;5040212;28;20449;-60
2024/02/15 05:54:41;;;;;;;27.77;26.10;;;21.50;72.10;;;;;;5040624;28;20873;-61
2024/02/15 05:57:08;;;;;;;27.97;26.60;;;21.50;71.80;;;;;;5043596;28;20471;-61
2024/02/15 05:59:35;;;;;;;31.10;29.70;;;21.50;71.50;;;;;;5043554;28;20472;-62
2024/02/15 06:02:02;;;;;;;35.00;32.83;;;21.50;71.10;;;;;;5031898;28;20476;-61
2024/02/15 06:04:30;;;;;;;31.80;29.90;;;21.60;70.90;;;;;;5040082;28;20476;-62
2024/02/15 06:07:00;;;;;;;28.77;27.13;;;21.60;70.60;;;;;;5042785;28;20436;-60
2024/02/15 06:09:30;;;;;;;29.40;28.00;;;21.60;70.30;;;;;;5042872;28;20444;-61
2024/02/15 06:11:57;;;;;;;29.30;27.47;;;21.60;70.10;;;;;;5040282;28;20496;-62
2024/02/15 06:14:25;;;;;;;28.93;27.67;;;21.70;69.90;;;;;;5040040;28;20441;-61
2024/02/15 06:16:55;;;;;;;29.83;28.23;;;21.70;69.70;;;;;;5042021;28;20446;-62
2024/02/15 06:19:21;;;;;;;28.50;27.20;;;21.70;69.40;;;;;;5043288;28;20931;-62
2024/02/15 06:21:49;;;;;;;29.00;27.30;;;21.70;69.20;;;;;;5041574;28;20507;-60
2024/02/15 06:24:16;;;;;;;29.53;28.10;;;21.70;69.00;;;;;;5039808;28;20457;-61
2024/02/15 06:26:44;;;;;;;27.97;26.77;;;21.70;68.90;;;;;;5040384;28;20453;-61
2024/02/15 06:40:22;;;;;;;26.90;25.63;;;21.80;68.10;;;;;;5034007;28;20432;-62
2024/02/15 06:42:51;;;;;;;25.70;24.60;;;21.80;68.00;;;;;;5040920;28;20568;-60
2024/02/15 06:45:19;;;;;;;25.73;24.53;;;21.80;67.80;;;;;;5042945;28;20543;-62
2024/02/15 06:47:46;;;;;;;27.37;26.17;;;21.90;67.80;;;;;;5041602;28;20457;-62
2024/02/15 06:50:14;;;;;;;26.83;25.53;;;21.90;67.60;;;;;;5039379;28;20476;-61
2024/02/15 06:52:41;;;;;;;27.67;26.07;;;21.90;67.50;;;;;;5039709;28;20479;-62
2024/02/15 06:55:11;;;;;;;25.70;24.60;;;21.90;67.40;;;;;;5042953;28;20750;-60
2024/02/15 06:57:40;;;;;;;25.53;24.53;;;21.90;67.20;;;;;;5042828;28;20473;-62
2024/02/15 07:00:14;;;;;;;26.77;25.57;;;22.00;67.20;;;;;;5039432;28;20476;-61
2024/02/15 07:02:40;;;;;;;27.70;26.60;;;22.00;67.10;;;;;;5039623;28;20480;-62
2024/02/15 07:05:09;;;;;;;26.97;25.77;;;22.00;67.00;;;;;;5042760;28;20440;-61
2024/02/15 07:07:38;;;;;;;30.50;29.10;;;22.00;66.90;;;;;;5042781;28;20514;-62
2024/02/15 07:10:06;;;;;;;27.37;26.23;;;22.00;66.70;;;;;;5042865;28;20441;-62
2024/02/15 07:12:33;;;;;;;29.30;28.10;;;22.00;66.60;;;;;;5042727;28;20487;-61
2024/02/15 07:15:01;;;;;;;29.47;28.10;;;22.00;66.50;;;;;;5042746;28;20448;-61
2024/02/15 07:17:29;;;;;;;27.67;26.53;;;22.00;66.40;;;;;;5042640;28;20448;-61
2024/02/15 07:19:56;;;;;;;28.70;27.50;;;22.00;66.30;;;;;;5040168;28;20480;-62
2024/02/15 07:22:23;;;;;;;28.77;27.57;;;22.10;66.40;;;;;;5040664;28;20492;-61
2024/02/15 07:24:50;;;;;;;28.90;27.50;;;22.10;66.20;;;;;;5044301;28;20445;-61
2024/02/15 07:27:18;;;;;;;28.67;27.50;;;22.10;66.10;;;;;;5046423;28;20883;-62
2024/02/15 07:29:45;;;;;;;28.97;27.57;;;22.10;66.10;;;;;;5045543;28;20519;-62
2024/02/15 07:32:12;;;;;;;29.30;28.10;;;22.10;65.90;;;;;;5042828;28;20876;-60
2024/02/15 07:34:41;;;;;;;29.17;27.97;;;22.10;65.80;;;;;;5042799;28;20441;-61
2024/02/15 07:37:09;;;;;;;28.27;27.13;;;22.10;65.80;;;;;;5042795;28;20445;-62
2024/02/15 07:39:36;;;;;;;27.97;26.87;;;22.20;65.70;;;;;;5042803;28;20445;-60
2024/02/15 07:42:04;;;;;;;27.27;26.27;;;22.20;65.70;;;;;;5045763;28;20460;-61
2024/02/15 07:44:32;;;;;;;29.40;28.10;;;22.20;65.60;;;;;;5045922;28;20471;-62
2024/02/15 07:47:00;;;;;;;29.53;28.43;;;22.20;65.50;;;;;;5043388;28;20451;-61
2024/02/15 07:49:27;;;;;;;29.13;27.83;;;22.20;66.20;;;;;;5042511;28;20444;-61
2024/02/15 07:51:55;;;;;;;28.10;27.00;;;22.20;65.30;;;;;;5044225;28;20519;-62
2024/02/15 07:54:23;;;;;;;28.00;26.83;;;22.20;65.20;;;;;;5045905;28;20490;-62
2024/02/15 07:56:51;;;;;;;26.77;25.57;;;22.20;65.20;;;;;;5044532;28;20512;-62
2024/02/15 07:59:18;;;;;;;27.40;26.40;;;22.20;65.10;;;;;;5042514;28;20448;-62
2024/02/15 08:01:47;;;;;;;27.87;26.63;;;22.20;65.00;;;;;;5042764;28;20469;-62
2024/02/15 08:04:14;;;;;;;29.20;28.10;;;22.30;65.00;;;;;;5045775;28;20472;-59
2024/02/15 08:06:41;;;;;;;29.10;27.80;;;22.30;65.00;;;;;;5045730;28;20480;-62
2024/02/15 08:09:13;;;;;;;28.50;27.43;;;22.30;64.90;;;;;;5034313;28;20445;-60
2024/02/15 08:11:40;;;;;;;28.67;27.47;;;22.30;64.80;;;;;;5042019;28;20461;-61
2024/02/15 08:14:10;;;;;;;29.87;28.53;;;22.30;64.80;;;;;;5033977;28;20511;-61
2024/02/15 08:16:39;;;;;;;29.60;28.40;;;22.30;64.70;;;;;;5042047;28;20499;-62
2024/02/15 08:19:07;;;;;;;30.53;29.33;;;22.30;64.60;;;;;;5033956;28;21035;-61
2024/02/15 08:21:36;;;;;;;30.90;29.50;;;22.30;64.60;;;;;;5041915;28;20484;-61
2024/02/15 08:24:05;;;;;;;29.67;28.57;;;22.30;64.50;;;;;;5044718;28;20916;-62
2024/02/15 08:26:35;;;;;;;29.83;28.73;;;22.40;64.60;;;;;;5045352;28;20936;-62
2024/02/15 08:29:03;;;;;;;30.30;29.20;;;22.40;64.50;;;;;;5042531;28;20451;-62
2024/02/15 08:31:30;;;;;;;28.97;27.80;;;22.40;64.50;;;;;;5041610;28;20528;-62
2024/02/15 08:33:57;;;;;;;29.53;28.33;;;22.40;64.40;;;;;;5043148;28;20444;-60
2024/02/15 08:36:24;;;;;;;29.60;28.40;;;22.40;64.30;;;;;;5045156;28;20789;-62
2024/02/15 08:38:51;;;;;;;30.30;28.93;;;22.40;64.30;;;;;;5043963;28;20472;-60
2024/02/15 08:41:20;;;;;;;29.57;28.37;;;22.40;64.20;;;;;;5041527;28;20468;-62
2024/02/15 08:43:49;;;;;;;29.13;28.03;;;22.40;64.10;;;;;;5042013;28;20480;-62
2024/02/15 08:46:16;;;;;;;30.40;29.00;;;22.40;64.00;;;;;;5045007;28;20524;-61
2024/02/15 08:48:43;;;;;;;29.50;28.40;;;22.40;64.00;;;;;;5044883;28;20505;-62
2024/02/15 08:51:10;;;;;;;28.27;27.27;;;22.50;64.10;;;;;;5041408;28;20986;-62
2024/02/15 08:53:37;;;;;;;29.03;27.87;;;22.50;64.00;;;;;;5041293;28;20493;-61
2024/02/15 08:56:04;;;;;;;29.73;28.43;;;22.50;63.90;;;;;;5044200;28;20440;-60
2024/02/15 08:58:31;;;;;;;28.50;27.30;;;22.50;63.90;;;;;;5044796;28;20970;-60
2024/02/15 09:00:59;;;;;;;29.07;27.87;;;22.50;63.90;;;;;;5042506;28;20472;-61
2024/02/15 09:03:26;;;;;;;29.37;28.10;;;22.50;63.90;;;;;;5040907;28;20473;-62
2024/02/15 09:05:52;;;;;;;29.40;28.30;;;22.50;63.80;;;;;;5042464;28;20485;-62
2024/02/15 09:08:20;;;;;;;29.80;28.60;;;22.50;63.70;;;;;;5044745;28;20478;-62
2024/02/15 09:10:47;;;;;;;30.20;29.07;;;22.50;63.70;;;;;;5043970;28;20451;-61
2024/02/15 09:13:14;;;;;;;28.63;27.60;;;22.50;63.60;;;;;;5040887;28;20493;-62
2024/02/15 09:15:42;;;;;;;29.10;28.00;;;22.50;63.50;;;;;;5041039;28;20814;-62
2024/02/15 09:18:10;;;;;;;27.70;26.60;;;22.50;63.50;;;;;;5044226;28;20443;-60
2024/02/15 09:20:40;;;;;;;27.00;25.90;;;22.60;63.60;;;;;;5044360;28;20495;-62
2024/02/15 09:23:09;;;;;;;27.47;26.37;;;22.60;63.50;;;;;;5040856;28;20492;-61
2024/02/15 09:25:40;;;;;;;29.03;27.57;;;22.60;63.40;;;;;;5040856;28;20867;-61
2024/02/15 09:28:07;;;;;;;28.20;27.10;;;22.60;63.40;;;;;;5043655;28;20436;-62
2024/02/15 09:30:35;;;;;;;28.20;27.13;;;22.60;63.30;;;;;;5044359;28;20476;-62
2024/02/15 09:33:04;;;;;;;28.53;27.43;;;22.60;63.30;;;;;;5041380;28;20471;-62
2024/02/15 09:35:33;;;;;;;27.90;26.80;;;22.60;63.30;;;;;;5040625;28;20441;-62
2024/02/15 09:37:59;;;;;;;28.50;27.40;;;22.60;63.20;;;;;;5042523;28;20476;-61
2024/02/15 09:40:29;;;;;;;28.17;27.07;;;22.60;63.20;;;;;;5044007;28;20441;-61
2024/02/15 09:42:56;;;;;;;27.83;26.60;;;22.60;63.10;;;;;;5042036;28;21082;-61
2024/02/15 09:45:24;;;;;;;29.30;28.20;;;22.60;63.00;;;;;;5039664;28;20437;-62
2024/02/15 09:47:52;;;;;;;27.80;26.80;;;22.60;63.00;;;;;;5041245;28;20448;-62
2024/02/15 09:50:19;;;;;;;28.30;27.30;;;22.60;62.90;;;;;;5043762;28;20528;-62
2024/02/15 09:52:54;;;;;;;28.00;26.90;;;22.60;62.90;;;;;;5043379;28;20491;-62
2024/02/15 09:55:22;;;;;;;27.83;26.83;;;22.60;62.90;;;;;;5040320;28;20473;-62
2024/02/15 09:57:51;;;;;;;28.23;27.13;;;22.60;62.80;;;;;;5040777;28;20449;-62
2024/02/15 10:00:18;;;;;;;28.37;27.30;;;22.70;62.90;;;;;;5043514;28;20975;-61
2024/02/15 10:02:48;;;;;;;26.93;25.83;;;22.70;62.90;;;;;;5043496;28;20987;-56
2024/02/15 10:05:15;;;;;;;27.20;26.20;;;22.70;62.80;;;;;;5032399;28;20509;-60
2024/02/15 10:07:44;;;;;;;27.70;26.60;;;22.70;62.80;;;;;;5040024;28;20481;-59
2024/02/15 10:10:19;;;;;;;29.03;27.93;;;22.70;62.80;;;;;;5043294;28;20440;-59
2024/02/15 10:12:48;;;;;;;29.50;28.40;;;22.70;62.70;;;;;;5043173;28;20498;-64
2024/02/15 10:15:30;;;;;;;28.23;27.13;;;22.70;62.60;;;;;;5039824;28;20430;-59
2024/02/15 10:17:57;;;;;;;27.90;26.80;;;22.70;62.60;;;;;;5041199;28;20445;-60
2024/02/15 10:20:25;;;;;;;28.10;26.90;;;22.70;62.60;;;;;;5043359;28;20471;-54
2024/02/15 10:22:53;;;;;;;27.93;26.90;;;22.70;62.60;;;;;;5042198;28;20851;-61
2024/02/15 10:25:22;;;;;;;28.33;27.23;;;22.70;62.60;;;;;;5039778;28;20989;-58
2024/02/15 10:27:49;;;;;;;28.20;27.10;;;22.70;62.50;;;;;;5039995;28;20453;-61
2024/02/15 10:30:17;;;;;;;27.90;26.83;;;22.70;62.50;;;;;;5043199;28;20728;-58
2024/02/15 10:32:45;;;;;;;28.13;27.10;;;22.70;62.50;;;;;;5043341;28;20879;-64
2024/02/15 10:35:19;;;;;;;29.57;28.47;;;22.70;62.40;;;;;;5032549;28;20437;-62
2024/02/15 10:37:49;;;;;;;28.00;27.00;;;22.70;62.40;;;;;;5040606;28;20475;-64
2024/02/15 10:40:19;;;;;;;28.87;27.77;;;22.70;62.30;;;;;;5032746;28;20437;-64
2024/02/15 10:42:49;;;;;;;29.30;28.20;;;22.80;62.40;;;;;;5040036;28;20469;-64
2024/02/15 10:45:17;;;;;;;29.63;28.53;;;22.80;62.40;;;;;;5032249;28;20477;-64
2024/02/15 10:47:45;;;;;;;28.93;27.73;;;22.80;62.40;;;;;;5040163;28;20716;-64
2024/02/15 10:50:12;;;;;;;28.10;26.90;;;22.80;62.40;;;;;;5043263;28;20803;-64
2024/02/15 10:52:46;;;;;;;29.10;28.00;;;22.80;62.40;;;;;;5043611;28;20488;-64
2024/02/15 10:55:19;;;;;;;28.40;27.40;;;22.80;62.30;;;;;;5032083;28;20447;-63
2024/02/15 10:57:52;;;;;;;29.03;28.03;;;22.80;62.20;;;;;;5044294;28;20888;-65
2024/02/15 11:00:25;;;;;;;28.47;27.47;;;22.80;62.20;;;;;;5036592;28;20445;-63
2024/02/15 11:03:01;;;;;;;28.60;27.60;;;22.80;62.20;;;;;;5044320;28;20472;-64
2024/02/15 11:05:33;;;;;;;29.10;27.97;;;22.80;62.20;;;;;;5047235;28;20518;-64
2024/02/15 11:08:00;;;;;;;28.40;27.40;;;22.80;62.10;;;;;;5046073;28;20448;-64
2024/02/15 11:10:27;;;;;;;29.33;28.20;;;22.80;62.10;;;;;;5044947;28;20469;-64
2024/02/15 11:12:58;;;;;;;28.10;27.10;;;22.80;62.10;;;;;;5044971;28;20489;-64
2024/02/15 11:15:51;;;;;;;28.83;27.73;;;22.80;62.00;;;;;;5047552;28;20475;-63
2024/02/15 11:18:45;;;;;;;29.20;28.20;;;22.80;62.00;;;;;;5036893;28;20445;-64
2024/02/15 11:21:12;;;;;;;29.23;28.07;;;22.80;62.00;;;;;;5048967;28;20440;-64
2024/02/15 11:23:39;;;;;;;30.70;29.50;;;22.80;61.90;;;;;;5049005;28;20519;-65
2024/02/15 11:26:09;;;;;;;29.03;27.93;;;22.80;61.90;;;;;;5045564;28;20448;-65
2024/02/15 11:28:50;;;;;;;29.60;28.60;;;22.90;62.00;;;;;;5044608;28;20467;-64
2024/02/15 11:31:50;;;;;;;28.43;27.43;;;22.90;62.00;;;;;;5036254;28;20445;-65
2024/02/15 11:34:45;;;;;;;28.60;27.50;;;22.90;61.90;;;;;;5037330;28;20467;-65
2024/02/15 11:37:46;;;;;;;26.83;25.93;;;22.90;61.90;;;;;;5047877;28;20471;-64
2024/02/15 11:40:12;;;;;;;27.97;26.97;;;22.90;61.90;;;;;;5045281;28;20441;-64
2024/02/15 11:42:39;;;;;;;28.80;27.80;;;22.90;61.80;;;;;;5044356;28;20519;-63
2024/02/15 11:45:08;;;;;;;29.20;28.20;;;22.90;61.80;;;;;;5046693;28;20920;-64
2024/02/15 11:47:39;;;;;;;29.57;28.57;;;22.90;61.80;;;;;;5047990;28;20447;-65
2024/02/15 11:50:09;;;;;;;29.30;28.20;;;22.90;61.80;;;;;;5045591;28;20443;-63
2024/02/15 11:52:35;;;;;;;28.17;27.17;;;22.90;61.80;;;;;;5044790;28;20497;-64
2024/02/15 11:55:09;;;;;;;29.80;28.70;;;22.90;61.70;;;;;;5046609;28;21012;-64
2024/02/15 11:57:47;;;;;;;30.53;29.43;;;22.90;61.70;;;;;;5048393;28;20444;-64
2024/02/15 12:20:06;;;;;;;29.20;28.20;;;23.00;61.70;;;;;;5001904;28;20434;-64
2024/02/15 12:22:34;;;;;;;29.97;28.87;;;23.00;61.60;;;;;;5006117;28;20897;-64
2024/02/15 12:25:05;;;;;;;28.83;27.83;;;23.00;61.60;;;;;;5024488;28;21042;-64
2024/02/15 12:27:34;;;;;;;30.57;29.47;;;23.00;61.60;;;;;;5044107;28;20937;-64
2024/02/15 12:30:01;;;;;;;28.70;27.60;;;23.00;61.60;;;;;;5045088;28;20963;-64
2024/02/15 12:32:31;;;;;;;28.90;27.80;;;23.00;61.60;;;;;;5047910;28;20829;-64
2024/02/15 12:35:12;;;;;;;30.60;29.50;;;23.00;61.60;;;;;;5046280;28;20463;-65
2024/02/15 12:37:40;;;;;;;29.27;28.23;;;23.00;61.50;;;;;;5043244;28;20445;-65
2024/02/15 12:40:15;;;;;;;30.40;29.30;;;23.00;61.50;;;;;;5045538;28;20530;-65
2024/02/15 12:42:43;;;;;;;31.60;30.50;;;23.00;61.50;;;;;;5046584;28;20467;-65
2024/02/15 12:45:20;;;;;;;29.43;28.37;;;23.00;61.40;;;;;;5045107;28;20480;-64
2024/02/15 12:47:49;;;;;;;30.10;29.00;;;23.00;61.50;;;;;;5044471;28;20445;-64
2024/02/15 12:50:17;;;;;;;29.23;28.03;;;23.00;61.40;;;;;;5048529;28;20443;-64
2024/02/15 12:52:47;;;;;;;29.37;28.27;;;23.10;61.50;;;;;;5048784;28;20479;-64
2024/02/15 12:55:16;;;;;;;30.27;29.17;;;23.10;61.50;;;;;;5045403;28;20525;-65
2024/02/15 12:57:46;;;;;;;28.90;27.90;;;23.10;61.50;;;;;;5044942;28;20914;-65
2024/02/15 13:00:17;;;;;;;27.90;26.90;;;23.10;61.50;;;;;;5047118;28;20452;-62
2024/02/15 13:02:45;;;;;;;30.60;29.50;;;23.10;61.50;;;;;;5047956;28;20491;-64
2024/02/15 13:05:13;;;;;;;28.70;27.63;;;23.10;61.50;;;;;;5044940;28;20506;-63
2024/02/15 13:07:40;;;;;;;28.40;27.40;;;23.10;61.50;;;;;;5045231;28;20960;-64